EGEO/OBN METAR and TAF weather

Enter ICAO airport designator
Station Type Date Time Source
EGEO METAR 2019/10/18 10:50 UTC NOAA

EGEO 181050Z VRB02KT 9999 FEW024 BKN043 11/07 Q0995


Station Type Date Time Source
EGEO Decoded METAR 2019/10/18 10:50 UTC NOAA

Station name not available
Oct 18, 2019 - 06:50 AM EDT / 2019.10.18 1050 UTC
Wind: Variable at 2 MPH (2 KT):0
Visibility: greater than 7 mile(s):0
Sky conditions: mostly cloudy
Temperature: 51 F (11 C)
Dew Point: 44 F (7 C)
Relative Humidity: 76%
Pressure (altimeter): 29.38 in. Hg (0995 hPa)
ob: EGEO 181050Z VRB02KT 9999 FEW024 BKN043 11/07 Q0995
cycle: 11

Station Type Date Time Source
EGEO TAF UTC NOAA

Error!

Example: see airport list